createdAt,value
2022-09-14T00:01:21.115Z,619.90
2022-09-14T00:04:05.914Z,635.78
2022-09-14T00:06:53.893Z,645.13
2022-09-14T00:09:41.808Z,627.35
2022-09-14T00:12:29.729Z,634.78
2022-09-14T00:15:17.836Z,653.95
2022-09-14T00:18:08.777Z,618.65
2022-09-14T00:21:00.773Z,629.00
2022-09-14T00:23:48.676Z,619.58
2022-09-14T00:26:37.411Z,636.10
2022-09-14T00:29:25.672Z,642.05
2022-09-14T00:32:13.609Z,665.92
2022-09-14T00:35:03.068Z,639.15
2022-09-14T00:37:52.361Z,645.20
2022-09-14T00:40:40.232Z,634.60
2022-09-14T00:43:28.160Z,642.60
2022-09-14T00:46:16.050Z,627.17
2022-09-14T00:49:08.781Z,605.35
2022-09-14T00:52:03.880Z,630.00
2022-09-14T00:54:54.194Z,618.35
2022-09-14T00:57:44.895Z,621.55
2022-09-14T01:00:33.229Z,624.97
2022-09-14T01:03:21.119Z,609.05
2022-09-14T01:06:18.191Z,622.00
2022-09-14T01:09:29.576Z,639.28
2022-09-14T01:12:27.504Z,617.78
2022-09-14T01:15:21.811Z,600.85
2022-09-14T01:18:17.285Z,605.53
2022-09-14T01:21:09.435Z,621.08
2022-09-14T01:24:02.641Z,640.95
2022-09-14T01:27:23.990Z,589.65
2022-09-14T01:30:14.764Z,607.03
2022-09-14T01:33:10.714Z,620.35
2022-09-14T01:36:02.262Z,631.38
2022-09-14T01:38:54.729Z,635.30
2022-09-14T01:41:43.525Z,618.08
2022-09-14T01:44:37.174Z,640.42
2022-09-14T01:47:31.154Z,639.78
2022-09-14T01:50:24.619Z,588.88
2022-09-14T01:53:17.611Z,598.92
2022-09-14T01:56:15.153Z,638.65
2022-09-14T01:59:11.270Z,630.47
2022-09-14T02:02:03.984Z,625.55
2022-09-14T02:04:58.751Z,650.60
2022-09-14T02:07:46.725Z,617.38
2022-09-14T02:10:34.797Z,653.22
2022-09-14T02:13:22.725Z,613.70
2022-09-14T02:16:10.922Z,636.95
2022-09-14T02:19:01.592Z,644.05
2022-09-14T02:21:49.757Z,642.80
2022-09-14T02:24:37.906Z,625.88
2022-09-14T02:27:25.994Z,610.53
2022-09-14T02:30:17.169Z,639.13
2022-09-14T02:33:20.140Z,648.40
2022-09-14T02:36:17.452Z,612.20
2022-09-14T02:39:15.801Z,616.95
2022-09-14T02:42:15.105Z,609.15
2022-09-14T02:45:11.246Z,611.92
2022-09-14T02:48:05.715Z,623.63
2022-09-14T02:51:01.657Z,624.55
2022-09-14T02:53:56.772Z,631.85
2022-09-14T02:56:45.661Z,634.90
2022-09-14T02:59:33.695Z,623.25
2022-09-14T03:02:21.704Z,623.88
2022-09-14T03:05:09.989Z,594.53
2022-09-14T03:07:57.871Z,617.95
2022-09-14T03:10:47.089Z,627.00
2022-09-14T03:13:35.625Z,622.65
2022-09-14T03:16:23.627Z,609.42
2022-09-14T03:19:12.156Z,589.83
2022-09-14T03:22:00.088Z,630.95
2022-09-14T03:24:47.950Z,632.10
2022-09-14T03:27:37.251Z,598.25
2022-09-14T03:30:25.736Z,643.45
2022-09-14T03:33:15.222Z,619.78
2022-09-14T03:36:10.723Z,621.03
2022-09-14T03:39:01.746Z,614.58
2022-09-14T03:41:49.739Z,629.88
2022-09-14T03:44:38.967Z,623.92
2022-09-14T03:47:27.177Z,623.58
2022-09-14T03:50:16.807Z,634.30
2022-09-14T03:53:05.238Z,626.63
2022-09-14T03:55:53.141Z,618.63
2022-09-14T03:58:41.347Z,638.60
2022-09-14T04:01:32.662Z,642.58
2022-09-14T04:04:20.818Z,620.15
2022-09-14T04:07:08.736Z,640.88
2022-09-14T04:09:56.830Z,647.38
2022-09-14T04:12:44.721Z,644.55
2022-09-14T04:15:32.665Z,632.72
2022-09-14T04:18:21.868Z,607.83
2022-09-14T04:21:13.835Z,613.20
2022-09-14T04:24:17.527Z,648.72
2022-09-14T04:27:05.767Z,625.05
2022-09-14T04:29:53.673Z,604.80
2022-09-14T04:32:41.849Z,625.25
2022-09-14T04:35:31.053Z,644.50
2022-09-14T04:38:18.901Z,638.30
2022-09-14T04:41:08.423Z,645.35
2022-09-14T04:43:57.543Z,623.45
2022-09-14T04:46:47.098Z,640.15
2022-09-14T04:49:35.170Z,634.58
2022-09-14T04:52:24.768Z,630.17
2022-09-14T04:55:12.642Z,615.85
2022-09-14T04:58:00.524Z,618.42
2022-09-14T05:00:48.390Z,632.85
2022-09-14T05:03:36.683Z,627.75
2022-09-14T05:06:26.949Z,628.78
2022-09-14T05:09:18.163Z,610.80
2022-09-14T05:12:06.674Z,630.80
2022-09-14T05:14:54.578Z,645.45
2022-09-14T05:17:42.651Z,629.88
2022-09-14T05:20:30.601Z,631.42
2022-09-14T05:23:18.637Z,620.97
2022-09-14T05:26:08.159Z,627.85
2022-09-14T05:28:57.858Z,640.65
2022-09-14T05:31:46.707Z,629.90
2022-09-14T05:34:34.620Z,658.05
2022-09-14T05:37:22.486Z,604.38
2022-09-14T05:40:11.473Z,631.83
2022-09-14T05:43:00.709Z,653.05
2022-09-14T05:45:48.624Z,615.55
2022-09-14T05:48:37.776Z,622.05
2022-09-14T05:51:27.065Z,610.83
2022-09-14T05:54:15.857Z,644.42
2022-09-14T05:57:03.771Z,627.33
2022-09-14T05:59:53.005Z,604.17
2022-09-14T06:02:40.911Z,677.47
2022-09-14T06:05:29.160Z,622.88
2022-09-14T06:08:17.141Z,628.95
2022-09-14T06:11:05.612Z,645.97
2022-09-14T06:13:55.180Z,646.17
2022-09-14T06:16:44.387Z,649.13
2022-09-14T06:19:32.281Z,657.08
2022-09-14T06:22:20.179Z,637.90
2022-09-14T06:25:08.898Z,642.78
2022-09-14T06:27:56.800Z,627.60
2022-09-14T06:30:45.436Z,633.40
2022-09-14T06:33:34.924Z,674.10
2022-09-14T06:36:24.876Z,650.40
2022-09-14T06:39:13.198Z,651.03
2022-09-14T06:42:01.149Z,633.58
2022-09-14T06:44:49.954Z,650.55
2022-09-14T06:47:37.847Z,670.83
2022-09-14T06:50:27.072Z,659.05
2022-09-14T06:53:14.962Z,619.92
2022-09-14T06:56:03.188Z,649.78
2022-09-14T06:58:52.171Z,668.90
2022-09-14T07:01:42.033Z,629.05
2022-09-14T07:04:29.984Z,650.75
2022-09-14T07:07:19.473Z,646.33
2022-09-14T07:10:07.881Z,654.45
2022-09-14T07:12:55.821Z,641.55
2022-09-14T07:15:49.882Z,611.55
2022-09-14T07:18:37.917Z,613.30
2022-09-14T07:21:26.971Z,643.53
2022-09-14T07:24:16.629Z,631.53
2022-09-14T07:27:04.815Z,633.65
2022-09-14T07:29:52.730Z,645.50
2022-09-14T07:32:40.581Z,626.00
2022-09-14T07:35:28.420Z,625.60
2022-09-14T07:38:23.646Z,623.83
2022-09-14T07:41:20.445Z,645.58
2022-09-14T07:44:09.487Z,637.22
2022-09-14T07:46:57.374Z,631.97
2022-09-14T07:49:45.412Z,617.20
2022-09-14T07:52:37.982Z,638.88
2022-09-14T07:55:26.554Z,622.28
2022-09-14T07:58:15.753Z,620.92
2022-09-14T08:01:07.601Z,644.55
2022-09-14T08:03:55.522Z,646.60
2022-09-14T08:06:43.407Z,658.55
2022-09-14T08:09:31.403Z,633.97
2022-09-14T08:12:19.255Z,658.92
2022-09-14T08:15:10.018Z,626.35
2022-09-14T08:17:57.948Z,622.30
2022-09-14T08:20:46.702Z,612.67
2022-09-14T08:23:35.257Z,623.22
2022-09-14T08:26:24.952Z,649.92
2022-09-14T08:29:13.547Z,637.05
2022-09-14T08:32:03.283Z,654.92
2022-09-14T08:34:51.968Z,668.97
2022-09-14T08:37:39.880Z,656.50
2022-09-14T08:40:27.774Z,646.20
2022-09-14T08:43:16.049Z,635.20
2022-09-14T08:46:07.091Z,658.40
2022-09-14T08:48:56.671Z,662.70
2022-09-14T08:51:44.522Z,660.67
2022-09-14T08:54:33.220Z,640.50
2022-09-14T08:57:27.482Z,627.63
2022-09-14T09:00:18.437Z,640.53
2022-09-14T09:03:32.675Z,606.35
2022-09-14T09:06:30.151Z,641.95
2022-09-14T09:09:25.554Z,628.08
2022-09-14T09:12:17.496Z,661.95
2022-09-14T09:15:16.038Z,649.15
2022-09-14T09:18:09.143Z,649.13
2022-09-14T09:21:02.724Z,652.05
2022-09-14T09:23:52.088Z,658.95
2022-09-14T09:26:40.312Z,662.15
2022-09-14T09:29:28.195Z,655.90
2022-09-14T09:32:31.299Z,661.60
2022-09-14T09:35:24.480Z,646.00
2022-09-14T09:38:27.520Z,630.28
2022-09-14T09:41:22.379Z,664.17
2022-09-14T09:44:11.116Z,665.33
2022-09-14T09:47:00.856Z,682.15
2022-09-14T09:49:59.702Z,638.92
2022-09-14T09:52:51.272Z,670.10
2022-09-14T09:55:40.797Z,674.20
2022-09-14T09:58:37.640Z,668.53
2022-09-14T10:01:29.287Z,656.75
2022-09-14T10:04:19.350Z,662.30
2022-09-14T10:07:07.332Z,659.33
2022-09-14T10:10:00.012Z,679.20
2022-09-14T10:12:50.897Z,681.72
2022-09-14T10:15:40.780Z,687.50
2022-09-14T10:18:30.978Z,698.72
2022-09-14T10:21:22.012Z,658.17
2022-09-14T10:24:19.740Z,665.25
2022-09-14T10:27:36.983Z,660.25
2022-09-14T10:30:27.979Z,649.97
2022-09-14T10:33:18.314Z,676.58
2022-09-14T10:36:14.584Z,680.42
2022-09-14T10:39:14.346Z,662.97
2022-09-14T10:42:08.843Z,666.92
2022-09-14T10:45:09.862Z,661.20
2022-09-14T10:48:37.148Z,666.00
2022-09-14T10:51:38.920Z,645.58
2022-09-14T10:54:54.434Z,658.50
2022-09-14T10:57:50.591Z,658.25
2022-09-14T11:00:51.399Z,666.55
2022-09-14T11:03:55.148Z,656.55
2022-09-14T11:06:53.547Z,634.40
2022-09-14T11:09:47.940Z,676.80
2022-09-14T11:12:43.026Z,648.47
2022-09-14T11:15:39.041Z,665.03
2022-09-14T11:18:36.745Z,664.22
2022-09-14T11:21:37.236Z,658.00
2022-09-14T11:24:30.976Z,676.72
2022-09-14T11:27:26.637Z,654.38
2022-09-14T11:30:18.697Z,649.97
2022-09-14T11:33:13.830Z,634.00
2022-09-14T11:36:04.977Z,659.72
2022-09-14T11:39:04.694Z,643.80
2022-09-14T11:41:59.555Z,640.63
2022-09-14T11:44:50.315Z,670.50
2022-09-14T11:47:47.578Z,659.67
2022-09-14T11:50:36.955Z,656.40
2022-09-14T11:53:26.624Z,655.13
2022-09-14T11:56:26.349Z,636.63
2022-09-14T11:59:36.202Z,663.10
2022-09-14T12:03:01.592Z,628.67
2022-09-14T12:05:50.831Z,643.50
2022-09-14T12:08:41.244Z,656.65
2022-09-14T12:11:35.987Z,639.33
2022-09-14T12:14:35.751Z,678.78
2022-09-14T12:17:39.978Z,646.00
2022-09-14T12:20:44.110Z,639.38
2022-09-14T12:23:44.540Z,653.08
2022-09-14T12:26:35.649Z,654.60
2022-09-14T12:29:32.948Z,649.83
2022-09-14T12:32:42.322Z,678.42
2022-09-14T12:35:47.242Z,669.70
2022-09-14T12:38:43.875Z,656.25
2022-09-14T12:42:25.642Z,675.55
2022-09-14T12:45:52.290Z,657.00
2022-09-14T12:48:58.659Z,635.13
2022-09-14T12:51:51.199Z,660.50
2022-09-14T12:54:57.224Z,638.88
2022-09-14T12:57:52.402Z,664.08
2022-09-14T13:00:54.009Z,654.67
2022-09-14T13:03:50.886Z,639.63
2022-09-14T13:06:44.031Z,667.40
2022-09-14T13:09:33.216Z,673.72
2022-09-14T13:12:28.619Z,689.00
2022-09-14T13:15:22.244Z,680.80
2022-09-14T13:18:29.082Z,687.92
2022-09-14T13:21:23.572Z,660.35
2022-09-14T13:24:30.972Z,656.53
2022-09-14T13:27:23.746Z,699.15
2022-09-14T13:30:22.347Z,674.35
2022-09-14T13:33:16.600Z,676.47
2022-09-14T13:36:06.027Z,658.25
2022-09-14T13:38:54.908Z,685.22
2022-09-14T13:41:44.622Z,670.55
2022-09-14T13:44:34.237Z,678.60
2022-09-14T13:47:26.468Z,668.72
2022-09-14T13:50:15.493Z,670.33
2022-09-14T13:53:04.520Z,681.85
2022-09-14T13:55:52.609Z,654.97
2022-09-14T13:58:40.614Z,679.05
2022-09-14T14:01:29.724Z,649.38
2022-09-14T14:04:29.460Z,675.85
2022-09-14T14:07:22.188Z,667.90
2022-09-14T14:10:29.461Z,651.90
2022-09-14T14:13:26.303Z,642.95
2022-09-14T14:16:18.991Z,649.72
2022-09-14T14:19:07.994Z,654.00
2022-09-14T14:22:18.624Z,638.80
2022-09-14T14:25:20.686Z,655.03
2022-09-14T14:28:17.842Z,631.05
2022-09-14T14:31:09.021Z,630.38
2022-09-14T14:33:58.763Z,656.00
2022-09-14T14:36:47.989Z,646.90
2022-09-14T14:39:37.371Z,608.53
2022-09-14T14:42:25.535Z,640.78
2022-09-14T14:45:15.719Z,615.13
2022-09-14T14:48:03.978Z,584.90
2022-09-14T14:50:51.878Z,624.70
2022-09-14T14:53:39.759Z,622.95
2022-09-14T14:56:29.591Z,625.70
2022-09-14T14:59:29.440Z,652.60
2022-09-14T15:02:17.375Z,640.22
2022-09-14T15:05:05.852Z,607.22
2022-09-14T15:07:54.981Z,598.38
2022-09-14T15:10:43.023Z,633.88
2022-09-14T15:13:32.256Z,629.35
2022-09-14T15:16:20.388Z,633.45
2022-09-14T15:19:10.486Z,610.63
2022-09-14T15:22:01.295Z,624.67
2022-09-14T15:24:49.928Z,626.85
2022-09-14T15:27:37.965Z,616.95
2022-09-14T15:30:27.536Z,627.13
2022-09-14T15:33:15.529Z,631.78
2022-09-14T15:36:04.095Z,673.85
2022-09-14T15:38:51.968Z,629.22
2022-09-14T15:41:39.938Z,659.08
2022-09-14T15:44:27.894Z,643.58
2022-09-14T15:47:17.679Z,612.95
2022-09-14T15:50:06.665Z,630.13
2022-09-14T15:52:56.248Z,604.53
2022-09-14T15:55:47.265Z,637.47
2022-09-14T15:58:35.149Z,612.05
2022-09-14T16:01:23.083Z,621.58
2022-09-14T16:04:12.412Z,623.00
2022-09-14T16:07:00.329Z,610.78
2022-09-14T16:09:48.225Z,643.22
2022-09-14T16:12:36.149Z,639.78
2022-09-14T16:15:24.060Z,625.50
2022-09-14T16:18:11.931Z,633.40
2022-09-14T16:21:07.370Z,663.08
2022-09-14T16:23:57.567Z,645.92
2022-09-14T16:26:46.573Z,615.75
2022-09-14T16:29:34.463Z,610.17
2022-09-14T16:32:23.052Z,631.15
2022-09-14T16:35:10.999Z,627.90
2022-09-14T16:38:00.249Z,627.72
2022-09-14T16:40:48.139Z,624.38
2022-09-14T16:43:36.702Z,629.55
2022-09-14T16:46:26.687Z,615.10
2022-09-14T16:49:14.566Z,617.20
2022-09-14T16:52:02.824Z,610.95
2022-09-14T16:54:56.070Z,628.65
2022-09-14T16:57:44.185Z,607.03
2022-09-14T17:00:32.154Z,615.55
2022-09-14T17:03:20.067Z,618.28
2022-09-14T17:06:11.011Z,636.08
2022-09-14T17:09:01.214Z,627.95
2022-09-14T17:11:50.615Z,624.38
2022-09-14T17:14:38.518Z,605.13
2022-09-14T17:17:26.376Z,610.80
2022-09-14T17:20:14.235Z,630.70
2022-09-14T17:23:02.130Z,630.00
2022-09-14T17:25:50.114Z,618.08
2022-09-14T17:28:40.362Z,638.10
2022-09-14T17:31:39.158Z,603.33
2022-09-14T17:34:27.102Z,623.90
2022-09-14T17:37:15.003Z,603.38
2022-09-14T17:40:03.608Z,599.83
2022-09-14T17:42:51.530Z,641.85
2022-09-14T17:45:41.187Z,611.65
2022-09-14T17:48:33.252Z,604.75
2022-09-14T17:51:22.725Z,588.00
2022-09-14T17:54:10.696Z,635.85
2022-09-14T17:56:58.566Z,614.95
2022-09-14T17:59:46.969Z,615.05
2022-09-14T18:02:36.237Z,640.95
2022-09-14T18:05:24.148Z,622.92
2022-09-14T18:08:12.101Z,622.70
2022-09-14T18:11:05.613Z,634.85
2022-09-14T18:13:53.733Z,613.15
2022-09-14T18:16:43.003Z,614.22
2022-09-14T18:19:32.336Z,616.58
2022-09-14T18:22:20.323Z,607.30
2022-09-14T18:25:09.675Z,630.22
2022-09-14T18:27:57.587Z,613.13
2022-09-14T18:30:45.516Z,608.33
2022-09-14T18:33:34.141Z,599.72
2022-09-14T18:36:23.644Z,612.40
2022-09-14T18:39:12.899Z,621.33
2022-09-14T18:42:00.817Z,607.17
2022-09-14T18:44:53.611Z,627.20
2022-09-14T18:47:41.517Z,622.97
2022-09-14T18:50:29.459Z,628.63
2022-09-14T18:53:18.755Z,601.83
2022-09-14T18:56:08.956Z,612.28
2022-09-14T18:58:57.381Z,619.35
2022-09-14T19:01:45.436Z,630.65
2022-09-14T19:04:33.474Z,630.50
2022-09-14T19:07:21.367Z,632.25
2022-09-14T19:10:11.875Z,618.72
2022-09-14T19:12:59.860Z,625.88
2022-09-14T19:15:47.832Z,629.35
2022-09-14T19:18:36.376Z,624.55
2022-09-14T19:21:26.249Z,626.60
2022-09-14T19:24:16.035Z,613.47
2022-09-14T19:27:05.963Z,624.33
2022-09-14T19:29:53.910Z,602.10
2022-09-14T19:32:42.116Z,601.83
2022-09-14T19:35:31.451Z,626.90
2022-09-14T19:38:19.330Z,610.28
2022-09-14T19:41:07.833Z,627.47
2022-09-14T19:43:57.040Z,610.22
2022-09-14T19:46:45.265Z,611.90
2022-09-14T19:49:33.177Z,580.60
2022-09-14T19:52:21.073Z,601.55
2022-09-14T19:55:09.936Z,608.55
2022-09-14T19:57:57.851Z,616.28
2022-09-14T20:00:47.106Z,610.78
2022-09-14T20:03:36.706Z,596.28
2022-09-14T20:06:29.517Z,615.92
2022-09-14T20:09:20.022Z,621.75
2022-09-14T20:12:08.059Z,584.90
2022-09-14T20:14:56.030Z,584.22
2022-09-14T20:17:45.288Z,569.47
2022-09-14T20:20:37.530Z,600.28
2022-09-14T20:23:25.531Z,589.25
2022-09-14T20:26:15.505Z,598.35
2022-09-14T20:29:03.880Z,591.33
2022-09-14T20:31:52.317Z,612.75
2022-09-14T20:34:41.707Z,592.78
2022-09-14T20:37:29.686Z,579.95
2022-09-14T20:40:17.779Z,623.03
2022-09-14T20:43:05.675Z,573.10
2022-09-14T20:46:00.819Z,582.40
2022-09-14T20:48:49.719Z,594.70
2022-09-14T20:51:39.630Z,599.40
2022-09-14T20:54:27.702Z,553.00
2022-09-14T20:57:15.570Z,591.78
2022-09-14T21:00:04.225Z,569.63
2022-09-14T21:02:52.363Z,595.33
2022-09-14T21:05:40.588Z,586.72
2022-09-14T21:08:31.557Z,591.40
2022-09-14T21:11:22.651Z,568.28
2022-09-14T21:14:10.513Z,615.38
2022-09-14T21:16:58.558Z,576.97
2022-09-14T21:19:46.493Z,577.53
2022-09-14T21:22:34.491Z,579.35
2022-09-14T21:25:23.797Z,591.50
2022-09-14T21:28:11.686Z,606.38
2022-09-14T21:31:10.260Z,576.53
2022-09-14T21:34:00.030Z,553.45
2022-09-14T21:36:49.487Z,604.28
2022-09-14T21:39:38.016Z,587.22
2022-09-14T21:42:27.254Z,598.28
2022-09-14T21:45:15.246Z,586.20
2022-09-14T21:48:03.362Z,594.08
2022-09-14T21:50:51.284Z,606.15
2022-09-14T21:53:39.168Z,606.90
2022-09-14T21:56:29.204Z,587.50
2022-09-14T21:59:20.315Z,591.38
2022-09-14T22:02:08.248Z,572.28
2022-09-14T22:04:56.252Z,611.70
2022-09-14T22:07:44.154Z,595.88
2022-09-14T22:10:32.011Z,571.58
2022-09-14T22:13:20.044Z,565.10
2022-09-14T22:16:10.876Z,576.45
2022-09-14T22:19:00.569Z,575.55
2022-09-14T22:21:48.684Z,582.47
2022-09-14T22:24:38.621Z,584.30
2022-09-14T22:27:26.579Z,558.25
2022-09-14T22:30:14.888Z,594.85
2022-09-14T22:33:04.207Z,608.22
2022-09-14T22:35:53.875Z,596.45
2022-09-14T22:38:42.259Z,557.28
2022-09-14T22:41:30.695Z,593.40
2022-09-14T22:44:18.599Z,585.10
2022-09-14T22:47:06.780Z,603.95
2022-09-14T22:49:56.005Z,596.38
2022-09-14T22:52:43.928Z,570.75
2022-09-14T22:55:31.837Z,566.00
2022-09-14T22:58:22.127Z,565.67
2022-09-14T23:01:12.686Z,573.17
2022-09-14T23:04:04.771Z,559.28
2022-09-14T23:06:54.004Z,603.75
2022-09-14T23:09:42.119Z,596.22
2022-09-14T23:12:30.008Z,581.22
2022-09-14T23:15:18.265Z,608.40
2022-09-14T23:18:06.756Z,559.65
2022-09-14T23:20:54.946Z,607.70
2022-09-14T23:23:44.233Z,581.13
2022-09-14T23:26:33.897Z,537.75
2022-09-14T23:29:21.761Z,568.03
2022-09-14T23:32:09.982Z,572.83
2022-09-14T23:34:57.882Z,559.45
2022-09-14T23:37:45.769Z,569.40
2022-09-14T23:40:35.007Z,589.25
2022-09-14T23:43:22.915Z,591.97
2022-09-14T23:46:11.084Z,549.40
2022-09-14T23:48:59.078Z,575.97
2022-09-14T23:51:47.051Z,563.65
2022-09-14T23:54:35.156Z,547.65
2022-09-14T23:57:24.450Z,580.13
